Aviation Digital Data Service (ADDS)

Output produced by METARs form (0906 UTC 26 May 2019)
found at http://www.aviationweather.gov/metar/data/
 
KIAD 260623Z 2606/2712 20005KT P6SM SCT020 BKN200 
     FM260800 22004KT P6SM FEW020 SCT250 
     FM261000 25004KT 6SM BR FEW020 SCT250 
     FM261200 28005KT P6SM FEW020 SCT200 
     FM261700 28008KT P6SM SCT050 BKN250 
     FM262100 29009KT P6SM -SHRA VCTS SCT045CB BKN200 
     FM270000 31007KT P6SM SCT050 BKN150 
     FM270900 31004KT 4SM BR SCT020 OVC060